Time;durP1;ratioP1;P1;durP2;ratioP2;P2;SDS_P1;SDS_P2;PMS_P1;PMS_P2;Temp;Humidity;BMP_temperature;BMP_pressure;BME280_temperature;BME280_humidity;BME280_pressure;Samples;Min_cycle;Max_cycle;Signal;HPM_P1;HPM_P2
2023/05/08 00:01:01;;;;;;;5.70;2.30;;;;;;;17.46;50.31;101980.67;110502;1275;22441;-49
2023/05/08 00:03:28;;;;;;;3.70;2.00;;;;;;;17.46;50.41;101980.89;110550;1269;22368;-49
2023/05/08 00:05:55;;;;;;;4.60;2.10;;;;;;;17.43;50.24;101978.16;110485;1273;22130;-49
2023/05/08 00:08:22;;;;;;;2.50;1.70;;;;;;;17.40;50.04;101981.76;110426;1270;22392;-49
2023/05/08 00:10:49;;;;;;;5.00;1.80;;;;;;;17.38;50.15;101983.40;110400;1269;22281;-49
2023/05/08 00:13:16;;;;;;;3.30;1.80;;;;;;;17.37;50.17;101981.14;110580;1270;22122;-49
2023/05/08 00:15:43;;;;;;;5.70;2.00;;;;;;;17.36;50.04;101982.59;110531;1267;22295;-50
2023/05/08 00:18:10;;;;;;;6.70;1.80;;;;;;;17.37;49.72;101988.36;110362;1269;22288;-49
2023/05/08 00:20:38;;;;;;;2.50;1.60;;;;;;;17.38;49.08;101992.52;109459;1274;1006364;-49
2023/05/08 00:23:04;;;;;;;2.80;1.50;;;;;;;17.37;48.72;101993.96;110506;1269;22312;-49
2023/05/08 00:25:32;;;;;;;4.40;1.50;;;;;;;17.36;48.57;101997.48;110534;1269;23268;-50
2023/05/08 00:27:59;;;;;;;2.80;1.80;;;;;;;17.36;48.22;102007.48;110497;1270;22757;-49
2023/05/08 00:30:26;;;;;;;2.80;1.80;;;;;;;17.36;47.94;102011.16;110319;1270;22248;-49
2023/05/08 00:32:53;;;;;;;4.90;1.60;;;;;;;17.35;47.65;102015.58;109683;1275;1002501;-49
2023/05/08 00:35:20;;;;;;;2.50;1.50;;;;;;;17.34;47.27;102016.31;110321;1275;22483;-49
2023/05/08 00:37:47;;;;;;;4.40;2.30;;;;;;;17.34;47.04;102014.56;110304;1275;22174;-49
2023/05/08 00:40:14;;;;;;;3.90;1.30;;;;;;;17.33;46.84;102011.43;110182;1275;22283;-48
2023/05/08 00:42:41;;;;;;;2.40;1.40;;;;;;;17.33;46.81;102002.84;110446;1267;22405;-49
2023/05/08 00:45:09;;;;;;;6.40;1.80;;;;;;;17.32;46.83;102002.34;110493;1274;22323;-49
2023/05/08 00:47:36;;;;;;;5.50;2.10;;;;;;;17.32;46.80;101999.02;109762;1269;1002547;-49
2023/05/08 00:50:04;;;;;;;2.90;1.70;;;;;;;17.32;46.91;101998.33;110551;1274;22201;-49
2023/05/08 00:52:31;;;;;;;4.40;1.80;;;;;;;17.32;46.46;102000.25;110134;1273;22199;-49
2023/05/08 00:55:00;;;;;;;2.40;1.80;;;;;;;17.30;46.03;101998.74;110423;1269;22281;-49
2023/05/08 00:57:29;;;;;;;3.80;1.40;;;;;;;17.26;46.13;102007.08;110256;1271;22441;-50
2023/05/08 00:59:56;;;;;;;3.00;1.70;;;;;;;17.25;46.49;102009.23;109281;1275;1002449;-49
2023/05/08 01:02:24;;;;;;;2.80;1.70;;;;;;;17.25;46.33;102012.90;110399;1270;22344;-49
2023/05/08 01:04:52;;;;;;;3.40;1.80;;;;;;;17.24;46.17;102013.64;109609;1270;1002348;-50
2023/05/08 01:07:19;;;;;;;4.10;1.90;;;;;;;17.24;46.23;102012.25;110345;1276;22933;-49
2023/05/08 01:09:46;;;;;;;3.60;1.60;;;;;;;17.24;46.54;102016.47;110324;1275;22624;-49
2023/05/08 01:12:14;;;;;;;3.30;1.60;;;;;;;17.24;46.97;102013.48;109443;1275;1002506;-50
2023/05/08 01:14:55;;;;;;;3.40;1.70;;;;;;;17.22;47.24;102010.55;110437;1273;22517;-49
2023/05/08 01:17:35;;;;;;;2.40;1.60;;;;;;;17.20;47.38;102013.42;110411;1275;22763;-49
2023/05/08 01:20:08;;;;;;;4.10;1.90;;;;;;;17.19;47.68;102015.02;110221;1273;22117;-48
2023/05/08 01:22:47;;;;;;;2.90;1.60;;;;;;;17.18;47.71;102020.84;110413;1269;22211;-49
2023/05/08 01:25:23;;;;;;;2.20;1.50;;;;;;;17.15;47.56;102027.05;110366;1268;22403;-49
2023/05/08 01:28:14;;;;;;;3.10;1.60;;;;;;;17.12;47.53;102020.32;109655;1272;1002102;-50
2023/05/08 01:31:20;;;;;;;3.50;1.80;;;;;;;17.10;46.65;102009.66;110563;1269;22131;-49
2023/05/08 01:33:54;;;;;;;3.20;1.80;;;;;;;17.08;45.80;102016.04;109926;1276;22162;-49
2023/05/08 01:36:55;;;;;;;7.90;1.70;;;;;;;17.06;45.45;102022.59;109146;1281;1002428;-50
2023/05/08 01:39:38;;;;;;;5.60;1.70;;;;;;;17.05;45.34;102021.91;109805;1279;22364;-49
2023/05/08 01:42:07;;;;;;;2.10;1.60;;;;;;;17.04;45.31;102023.69;110030;1280;22351;-49
2023/05/08 01:44:37;;;;;;;5.70;1.80;;;;;;;17.04;45.02;102019.84;109859;1281;22145;-49
2023/05/08 01:47:06;;;;;;;4.10;1.70;;;;;;;17.01;44.61;102013.09;109823;1278;22212;-49
2023/05/08 01:49:41;;;;;;;3.40;1.70;;;;;;;16.98;44.78;102009.67;110049;1274;22177;-50
2023/05/08 01:52:12;;;;;;;3.90;1.60;;;;;;;16.93;45.04;102003.14;110013;1280;23107;-50
2023/05/08 01:54:43;;;;;;;3.70;2.00;;;;;;;16.91;44.85;101998.30;110024;1273;22159;-50
2023/05/08 01:57:11;;;;;;;3.50;1.40;;;;;;;16.87;44.97;101997.36;110025;1280;22953;-49
2023/05/08 01:59:37;;;;;;;2.00;1.70;;;;;;;16.81;45.12;102002.95;109898;1281;22790;-50
2023/05/08 02:02:05;;;;;;;4.00;1.70;;;;;;;16.78;45.11;102006.71;109995;1281;22361;-49
2023/05/08 02:04:32;;;;;;;5.60;1.60;;;;;;;16.76;44.96;102001.16;109953;1280;22161;-50
2023/05/08 02:06:59;;;;;;;3.90;1.90;;;;;;;16.75;45.07;102002.45;110036;1275;22411;-49
2023/05/08 02:09:26;;;;;;;2.70;1.90;;;;;;;16.73;45.36;102007.58;110150;1275;22761;-49
2023/05/08 02:11:53;;;;;;;6.40;2.40;;;;;;;16.71;45.54;102007.45;110414;1269;22156;-49
2023/05/08 02:14:20;;;;;;;2.30;1.40;;;;;;;16.69;45.62;102010.30;110537;1269;22262;-50
2023/05/08 02:16:47;;;;;;;8.30;1.90;;;;;;;16.68;45.81;102015.77;110123;1271;22254;-50
2023/05/08 02:19:15;;;;;;;2.30;1.50;;;;;;;16.68;45.56;102015.07;109993;1277;22340;-49
2023/05/08 02:21:43;;;;;;;2.60;1.20;;;;;;;16.66;45.42;102018.80;110045;1277;22150;-49
2023/05/08 02:24:10;;;;;;;4.70;1.80;;;;;;;16.64;45.58;102014.13;110098;1276;277626;-49
2023/05/08 02:26:37;;;;;;;3.60;1.80;;;;;;;16.63;45.94;102015.73;109551;1271;1002554;-49
2023/05/08 02:29:04;;;;;;;3.60;1.60;;;;;;;16.62;46.00;102019.95;110036;1270;22386;-49
2023/05/08 02:31:32;;;;;;;2.30;1.60;;;;;;;16.62;46.01;102014.71;110134;1274;22974;-48
2023/05/08 02:34:00;;;;;;;3.70;1.70;;;;;;;16.61;46.24;102017.35;110177;1276;22436;-49
2023/05/08 02:36:27;;;;;;;4.70;2.30;;;;;;;16.63;45.88;102022.04;110047;1276;22398;-49
2023/05/08 02:38:55;;;;;;;3.50;1.60;;;;;;;16.64;45.06;102027.09;110091;1273;22426;-49
2023/05/08 02:41:22;;;;;;;2.60;1.70;;;;;;;16.63;44.69;102022.55;109045;1279;1003090;-49
2023/05/08 02:43:50;;;;;;;3.20;1.60;;;;;;;16.62;44.43;102024.33;109993;1279;22185;-49
2023/05/08 02:46:20;;;;;;;3.90;1.50;;;;;;;16.62;44.19;102016.30;109959;1272;22337;-49
2023/05/08 02:49:00;;;;;;;2.20;1.30;;;;;;;16.62;44.04;102017.52;109229;1271;1002992;-49
2023/05/08 02:51:32;;;;;;;2.70;1.70;;;;;;;16.60;43.80;102026.67;110065;1272;22425;-49
2023/05/08 02:54:09;;;;;;;4.30;1.70;;;;;;;16.57;43.65;102031.83;109983;1279;23129;-51
2023/05/08 02:56:39;;;;;;;4.10;1.70;;;;;;;16.54;43.83;102030.52;110042;1275;22307;-49
2023/05/08 02:59:29;;;;;;;3.80;1.90;;;;;;;16.53;43.97;102031.58;110029;1274;22879;-49
2023/05/08 03:02:21;;;;;;;3.20;1.50;;;;;;;16.50;43.88;102031.83;110054;1278;22128;-49
2023/05/08 03:04:54;;;;;;;4.10;1.60;;;;;;;16.49;43.88;102033.95;109364;1272;1003552;-49
2023/05/08 03:07:22;;;;;;;5.00;1.70;;;;;;;16.44;44.34;102044.23;110061;1278;22183;-50
2023/05/08 03:09:51;;;;;;;6.60;1.70;;;;;;;16.43;44.64;102049.16;110230;1273;22430;-49
2023/05/08 03:12:22;;;;;;;2.60;1.60;;;;;;;16.43;44.87;102045.84;110417;1269;22476;-49
2023/05/08 03:15:10;;;;;;;3.80;1.60;;;;;;;16.44;45.03;102040.38;110531;1269;22282;-49
2023/05/08 03:17:37;;;;;;;4.30;1.50;;;;;;;16.45;45.21;102043.67;110407;1270;22202;-49
2023/05/08 03:20:06;;;;;;;4.40;1.60;;;;;;;16.44;45.07;102048.44;110236;1274;22397;-49
2023/05/08 03:22:34;;;;;;;4.20;1.80;;;;;;;16.42;45.02;102049.70;110212;1274;22189;-49
2023/05/08 03:25:03;;;;;;;3.40;1.80;;;;;;;16.43;45.15;102051.27;110158;1276;23071;-49
2023/05/08 03:27:31;;;;;;;2.80;1.40;;;;;;;16.44;45.44;102049.84;110098;1273;22980;-49
2023/05/08 03:29:59;;;;;;;3.90;1.80;;;;;;;16.48;45.46;102043.06;110208;1264;23140;-49
2023/05/08 03:32:27;;;;;;;3.40;1.80;;;;;;;16.49;45.32;102041.65;109987;1277;22150;-49
2023/05/08 03:34:54;;;;;;;6.90;2.30;;;;;;;16.47;45.10;102036.79;110083;1273;22296;-49
2023/05/08 03:37:21;;;;;;;10.10;2.00;;;;;;;16.44;45.17;102040.91;110092;1277;22863;-50
2023/05/08 03:39:50;;;;;;;7.90;1.70;;;;;;;16.43;45.26;102045.31;110277;1271;22317;-49
2023/05/08 03:42:20;;;;;;;2.20;1.60;;;;;;;16.41;45.58;102047.81;110162;1276;22432;-49
2023/05/08 03:44:49;;;;;;;2.00;1.50;;;;;;;16.40;45.64;102051.52;109945;1269;22182;-49
2023/05/08 03:47:17;;;;;;;2.40;1.20;;;;;;;16.40;45.90;102050.11;110298;1276;22625;-48
2023/05/08 03:49:45;;;;;;;3.50;1.60;;;;;;;16.43;46.09;102051.77;110077;1279;22935;-49
2023/05/08 03:52:12;;;;;;;9.70;1.80;;;;;;;16.43;46.39;102056.69;109899;1272;22473;-48
2023/05/08 03:54:40;;;;;;;3.60;1.70;;;;;;;16.41;46.84;102061.12;110073;1279;23260;-49
2023/05/08 03:57:08;;;;;;;2.90;1.60;;;;;;;16.34;47.18;102062.52;110085;1273;22398;-49
2023/05/08 03:59:51;;;;;;;3.40;1.60;;;;;;;16.36;47.23;102067.54;110040;1273;22933;-49
2023/05/08 04:02:33;;;;;;;2.50;1.60;;;;;;;16.39;47.27;102073.96;110010;1278;22301;-49
2023/05/08 04:05:17;;;;;;;4.70;1.70;;;;;;;16.42;47.39;102075.98;110102;1274;22473;-49
2023/05/08 04:08:08;;;;;;;3.70;1.50;;;;;;;16.45;47.59;102077.83;110107;1277;22167;-49
2023/05/08 04:10:43;;;;;;;3.80;1.70;;;;;;;16.48;47.78;102083.70;110100;1276;22225;-50
2023/05/08 04:13:14;;;;;;;3.20;1.80;;;;;;;16.51;47.94;102089.45;110107;1277;23346;-50
2023/05/08 04:15:48;;;;;;;4.50;1.80;;;;;;;16.55;48.26;102096.02;110075;1274;22270;-49
2023/05/08 04:18:17;;;;;;;7.90;1.80;;;;;;;16.58;48.40;102098.55;110015;1277;22150;-48
2023/05/08 04:20:46;;;;;;;7.40;1.90;;;;;;;16.59;48.57;102100.11;110131;1273;22380;-49
2023/05/08 04:23:14;;;;;;;2.60;1.60;;;;;;;16.57;48.68;102101.02;110319;1271;22346;-49
2023/05/08 04:25:41;;;;;;;2.50;1.50;;;;;;;16.60;48.78;102103.23;110500;1274;22148;-49
2023/05/08 04:28:09;;;;;;;4.60;2.00;;;;;;;16.65;48.98;102109.07;110403;1266;23130;-49
2023/05/08 04:30:38;;;;;;;2.80;1.80;;;;;;;16.66;48.86;102113.41;110049;1267;22160;-50
2023/05/08 04:33:05;;;;;;;6.30;3.20;;;;;;;16.68;48.83;102116.14;109762;1268;1002076;-49
2023/05/08 04:35:33;;;;;;;4.80;1.60;;;;;;;16.68;48.73;102117.38;110184;1274;22904;-50
2023/05/08 04:38:01;;;;;;;3.70;1.80;;;;;;;16.67;48.81;102118.29;110519;1274;22729;-50
2023/05/08 04:40:28;;;;;;;3.30;2.40;;;;;;;16.68;49.08;102120.39;110455;1270;23179;-51
2023/05/08 04:42:55;;;;;;;3.90;1.40;;;;;;;16.71;49.13;102123.45;110472;1273;22348;-49
2023/05/08 04:45:23;;;;;;;2.90;1.60;;;;;;;16.73;48.78;102126.38;110455;1268;23027;-49
2023/05/08 04:47:50;;;;;;;4.40;2.00;;;;;;;16.73;48.74;102123.55;110188;1273;22364;-49
2023/05/08 04:50:17;;;;;;;3.70;1.70;;;;;;;16.74;48.77;102124.59;110173;1270;22450;-48
2023/05/08 04:52:45;;;;;;;2.90;1.90;;;;;;;16.75;48.75;102121.23;109998;1275;22451;-51
2023/05/08 04:55:12;;;;;;;4.40;1.80;;;;;;;16.75;48.84;102122.84;110253;1271;22168;-50
2023/05/08 04:57:39;;;;;;;4.50;1.80;;;;;;;16.74;48.90;102129.84;110256;1272;22366;-49
2023/05/08 05:00:07;;;;;;;6.10;2.70;;;;;;;16.74;49.30;102130.71;110098;1273;22196;-49
2023/05/08 05:02:37;;;;;;;4.00;2.00;;;;;;;16.76;49.58;102132.42;110011;1278;22239;-49
2023/05/08 05:05:05;;;;;;;4.10;2.50;;;;;;;16.78;49.66;102135.02;110050;1274;22264;-50
2023/05/08 05:07:32;;;;;;;3.20;2.40;;;;;;;16.69;50.08;102134.71;110072;1278;22615;-49
2023/05/08 05:09:59;;;;;;;2.90;2.00;;;;;;;16.74;50.15;102136.34;110079;1274;22165;-49
2023/05/08 05:12:26;;;;;;;4.40;2.00;;;;;;;16.75;50.06;102141.22;109991;1277;22208;-49
2023/05/08 05:14:54;;;;;;;3.20;2.40;;;;;;;16.72;50.36;102143.77;110113;1274;23152;-49
2023/05/08 05:17:21;;;;;;;2.10;1.90;;;;;;;16.72;50.46;102143.57;110099;1272;23560;-49
2023/05/08 05:19:48;;;;;;;4.40;2.20;;;;;;;16.78;50.18;102149.73;110229;1277;22193;-50
2023/05/08 05:22:19;;;;;;;2.80;1.90;;;;;;;16.75;50.05;102150.85;109986;1279;22931;-50
2023/05/08 05:24:46;;;;;;;2.90;1.80;;;;;;;16.75;49.56;102152.44;110156;1274;22354;-49
2023/05/08 05:27:13;;;;;;;6.50;2.20;;;;;;;16.73;49.62;102153.70;110517;1274;22087;-49
2023/05/08 05:29:41;;;;;;;4.00;2.10;;;;;;;16.72;49.85;102154.43;110364;1275;22098;-49
2023/05/08 05:32:10;;;;;;;3.40;2.10;;;;;;;16.79;49.61;102153.20;109621;1271;1002488;-49
2023/05/08 05:34:37;;;;;;;4.20;1.90;;;;;;;16.81;49.46;102154.40;110339;1269;22225;-49
2023/05/08 05:37:04;;;;;;;3.00;2.20;;;;;;;16.76;49.47;102150.30;110396;1271;22150;-49
2023/05/08 05:39:31;;;;;;;6.10;2.70;;;;;;;16.81;49.35;102152.64;110316;1269;22347;-50
2023/05/08 05:41:58;;;;;;;7.90;2.50;;;;;;;16.83;49.40;102152.40;110341;1271;22213;-50
2023/05/08 05:44:25;;;;;;;4.20;2.30;;;;;;;16.84;49.34;102150.08;110399;1270;22083;-49
2023/05/08 05:46:53;;;;;;;6.80;2.50;;;;;;;16.85;49.24;102151.48;110483;1269;22415;-49
2023/05/08 05:49:20;;;;;;;6.80;2.10;;;;;;;16.84;49.22;102148.69;110414;1273;22776;-49
2023/05/08 05:51:47;;;;;;;4.60;2.20;;;;;;;16.84;48.88;102150.61;110485;1269;22302;-50
2023/05/08 05:54:15;;;;;;;4.50;2.20;;;;;;;16.86;49.03;102150.75;110139;1266;23059;-49
2023/05/08 05:56:43;;;;;;;4.20;2.30;;;;;;;16.87;48.80;102150.20;110092;1277;22427;-49
2023/05/08 05:59:10;;;;;;;7.10;2.50;;;;;;;16.88;48.75;102149.64;110213;1273;22302;-51
2023/05/08 06:01:38;;;;;;;5.20;2.20;;;;;;;16.87;48.65;102154.04;110154;1271;22435;-49
2023/05/08 06:04:05;;;;;;;3.60;2.20;;;;;;;16.86;48.80;102151.97;110316;1277;22281;-50
2023/05/08 06:06:32;;;;;;;4.50;2.00;;;;;;;16.88;48.96;102157.71;110229;1271;22154;-49
2023/05/08 06:08:59;;;;;;;4.60;2.30;;;;;;;16.89;48.81;102157.32;110315;1271;22217;-49
2023/05/08 06:11:26;;;;;;;6.60;2.10;;;;;;;16.91;48.91;102156.73;110290;1271;22235;-49
2023/05/08 06:13:53;;;;;;;2.90;2.40;;;;;;;16.92;48.98;102154.79;110312;1277;22520;-49
2023/05/08 06:16:21;;;;;;;10.70;2.60;;;;;;;16.91;49.36;102160.60;110193;1272;22607;-49
2023/05/08 06:18:49;;;;;;;5.50;2.00;;;;;;;16.91;49.19;102166.56;110274;1272;22139;-49
2023/05/08 06:21:17;;;;;;;4.80;2.20;;;;;;;16.90;49.17;102170.44;110272;1277;22235;-48
2023/05/08 06:23:44;;;;;;;4.80;2.10;;;;;;;16.88;49.31;102173.64;110036;1275;22239;-49
2023/05/08 06:26:11;;;;;;;4.10;2.30;;;;;;;16.86;49.46;102171.95;110094;1277;22354;-49
2023/05/08 06:28:38;;;;;;;3.20;2.20;;;;;;;16.84;49.19;102170.43;110309;1274;22573;-49
2023/05/08 06:31:05;;;;;;;3.70;2.40;;;;;;;16.82;49.21;102163.48;110535;1274;22204;-49
2023/05/08 06:33:32;;;;;;;4.70;2.50;;;;;;;16.81;49.32;102162.45;110235;1274;22142;-50
2023/05/08 06:35:59;;;;;;;4.70;2.30;;;;;;;16.80;49.34;102164.77;110538;1268;22118;-49
2023/05/08 06:38:26;;;;;;;4.10;2.40;;;;;;;16.79;49.10;102162.14;110513;1268;22191;-49
2023/05/08 06:40:54;;;;;;;6.70;4.50;;;;;;;16.79;49.37;102164.95;110560;1268;22373;-49
2023/05/08 06:43:21;;;;;;;3.40;2.50;;;;;;;16.80;49.49;102166.48;110519;1268;22942;-49
2023/05/08 06:45:48;;;;;;;3.80;2.70;;;;;;;16.79;49.27;102165.64;110501;1273;22190;-49
2023/05/08 06:48:15;;;;;;;4.70;2.70;;;;;;;16.78;49.19;102162.00;110487;1268;22092;-49
2023/05/08 06:50:42;;;;;;;8.30;3.60;;;;;;;16.77;49.09;102164.83;110501;1275;22275;-49
2023/05/08 06:53:09;;;;;;;5.00;3.20;;;;;;;16.77;49.07;102162.02;110530;1274;22107;-49
2023/05/08 06:55:36;;;;;;;8.80;3.70;;;;;;;16.77;49.10;102166.41;110514;1274;22166;-49
2023/05/08 06:58:03;;;;;;;5.00;2.60;;;;;;;16.78;49.63;102169.54;110494;1273;22278;-49
2023/05/08 07:00:30;;;;;;;3.90;2.20;;;;;;;16.80;49.88;102173.50;110518;1268;22255;-49
2023/05/08 07:02:57;;;;;;;3.10;2.10;;;;;;;16.81;49.78;102176.13;110537;1275;22122;-48
2023/05/08 07:05:24;;;;;;;4.50;2.10;;;;;;;16.79;50.04;102171.95;110486;1268;22148;-50
2023/05/08 07:07:53;;;;;;;3.00;2.40;;;;;;;16.78;50.05;102182.48;109474;1271;1002154;-50
2023/05/08 07:10:21;;;;;;;4.30;2.10;;;;;;;16.77;49.91;102187.79;110274;1275;22651;-49
2023/05/08 07:12:48;;;;;;;3.00;2.20;;;;;;;16.77;49.82;102191.46;110541;1269;22120;-49
2023/05/08 07:15:16;;;;;;;2.80;2.10;;;;;;;16.79;49.55;102194.57;110481;1268;22376;-49
2023/05/08 07:17:51;;;;;;;3.70;2.60;;;;;;;16.81;48.81;102197.52;110445;1273;22298;-48
2023/05/08 07:20:19;;;;;;;3.70;2.10;;;;;;;16.81;48.77;102202.40;110468;1268;22391;-49
2023/05/08 07:22:46;;;;;;;4.60;2.10;;;;;;;16.83;48.43;102199.20;110431;1272;22429;-48
2023/05/08 07:25:13;;;;;;;3.10;2.40;;;;;;;16.85;48.12;102200.20;110449;1268;22877;-49
2023/05/08 07:27:41;;;;;;;4.00;2.60;;;;;;;16.87;48.13;102199.42;110420;1268;22110;-49
2023/05/08 07:30:08;;;;;;;4.60;2.10;;;;;;;16.92;47.97;102200.02;110491;1269;22333;-49
2023/05/08 07:32:37;;;;;;;4.40;2.30;;;;;;;16.98;47.99;102197.08;110539;1272;22274;-49
2023/05/08 07:35:07;;;;;;;3.20;2.10;;;;;;;17.05;47.75;102198.11;110406;1267;22430;-49
2023/05/08 07:37:36;;;;;;;6.10;2.50;;;;;;;17.10;47.43;102189.02;110080;1274;22878;-48
2023/05/08 07:40:03;;;;;;;5.00;2.20;;;;;;;17.15;47.32;102193.27;109711;1275;1003077;-49
2023/05/08 07:42:36;;;;;;;6.70;2.30;;;;;;;17.21;47.28;102192.42;110587;1269;22261;-49
2023/05/08 07:45:03;;;;;;;4.10;2.10;;;;;;;17.29;47.24;102193.77;110453;1269;22234;-49
2023/05/08 07:47:31;;;;;;;3.00;2.10;;;;;;;17.38;46.97;102192.33;110538;1267;22456;-49
2023/05/08 07:49:58;;;;;;;5.90;2.60;;;;;;;17.43;46.36;102189.88;110562;1267;22400;-49
2023/05/08 07:52:25;;;;;;;5.00;2.50;;;;;;;17.43;46.11;102188.85;110535;1269;22190;-49
2023/05/08 07:54:52;;;;;;;6.60;2.60;;;;;;;17.41;46.04;102192.06;110454;1269;22421;-49
2023/05/08 07:57:19;;;;;;;6.60;2.60;;;;;;;17.41;46.21;102195.56;110587;1266;22456;-49
2023/05/08 07:59:46;;;;;;;3.70;2.10;;;;;;;17.42;46.15;102197.64;110515;1266;22421;-48
2023/05/08 08:02:13;;;;;;;3.50;2.50;;;;;;;17.46;46.40;102200.88;110289;1274;23057;-50
2023/05/08 08:04:40;;;;;;;5.30;2.10;;;;;;;17.50;46.15;102202.02;110506;1274;22896;-49
2023/05/08 08:07:07;;;;;;;6.00;2.50;;;;;;;17.52;46.14;102203.55;110533;1273;22185;-49
2023/05/08 08:09:34;;;;;;;3.80;2.10;;;;;;;17.56;46.02;102202.02;110502;1274;22503;-49
2023/05/08 08:12:02;;;;;;;5.00;2.50;;;;;;;17.59;45.72;102199.65;110489;1274;22279;-49
2023/05/08 08:14:29;;;;;;;4.00;2.10;;;;;;;17.62;45.56;102195.36;110561;1274;22353;-49
2023/05/08 08:16:56;;;;;;;4.90;2.40;;;;;;;17.61;45.40;102193.98;110459;1269;22199;-49
2023/05/08 08:19:23;;;;;;;5.50;1.90;;;;;;;17.60;45.31;102195.77;110438;1268;23202;-50
2023/05/08 08:21:50;;;;;;;6.80;2.70;;;;;;;17.57;45.26;102202.70;110550;1274;22361;-49
2023/05/08 08:24:17;;;;;;;3.80;2.10;;;;;;;17.54;45.37;102202.24;110555;1274;22554;-49
2023/05/08 08:26:44;;;;;;;4.40;2.20;;;;;;;17.55;45.40;102200.30;110524;1274;22227;-51
2023/05/08 08:29:11;;;;;;;3.90;2.00;;;;;;;17.57;45.13;102202.18;109729;1275;1002511;-49
2023/05/08 08:31:38;;;;;;;3.20;2.10;;;;;;;17.57;45.11;102202.01;110466;1273;22398;-49
2023/05/08 08:34:06;;;;;;;4.90;2.30;;;;;;;17.57;45.30;102194.45;110513;1274;22342;-49
2023/05/08 08:36:33;;;;;;;5.60;2.70;;;;;;;17.55;45.38;102192.02;110338;1274;22309;-48
2023/05/08 08:39:00;;;;;;;3.80;2.10;;;;;;;17.55;45.58;102192.05;110556;1275;22122;-49
2023/05/08 08:41:28;;;;;;;5.90;2.20;;;;;;;17.57;45.71;102194.27;110469;1268;22134;-49
2023/05/08 08:43:55;;;;;;;4.30;2.30;;;;;;;17.59;45.33;102194.92;110450;1275;22388;-49
2023/05/08 08:46:23;;;;;;;5.20;2.40;;;;;;;17.60;45.50;102193.49;110541;1274;22454;-48
2023/05/08 08:48:50;;;;;;;5.40;2.70;;;;;;;17.60;45.48;102191.37;110525;1268;22999;-49
2023/05/08 08:51:39;;;;;;;2.80;2.40;;;;;;;17.61;45.67;102191.01;110339;1271;22463;-49
2023/05/08 08:54:11;;;;;;;2.90;2.20;;;;;;;17.63;45.34;102193.23;110071;1274;22392;-49
2023/05/08 08:56:41;;;;;;;5.20;2.70;;;;;;;17.62;45.47;102194.83;110499;1273;23081;-48
2023/05/08 08:59:08;;;;;;;5.20;2.70;;;;;;;17.63;45.37;102197.25;110427;1271;23036;-49
2023/05/08 09:01:40;;;;;;;7.70;2.80;;;;;;;17.64;45.29;102196.88;110534;1268;22131;-48
2023/05/08 09:04:07;;;;;;;;;;;;;;;17.65;45.34;102198.61;110459;1271;22453;-49
2023/05/08 09:06:35;;;;;;;3.20;2.10;;;;;;;17.65;45.35;102194.39;110463;1273;22181;-51
2023/05/08 09:09:03;;;;;;;4.70;2.40;;;;;;;17.68;45.59;102197.11;109805;1274;1002208;-48
2023/05/08 09:11:30;;;;;;;4.50;2.50;;;;;;;17.74;45.41;102195.54;110563;1267;22405;-49
2023/05/08 09:13:57;;;;;;;5.60;2.70;;;;;;;17.80;45.27;102189.75;110540;1275;22363;-49
2023/05/08 09:16:24;;;;;;;3.50;1.90;;;;;;;17.88;45.09;102190.39;110507;1268;22198;-49
2023/05/08 09:18:51;;;;;;;3.90;2.30;;;;;;;17.97;44.80;102185.75;110572;1273;22231;-49
2023/05/08 09:21:18;;;;;;;3.50;2.10;;;;;;;18.05;44.69;102179.02;110577;1273;22270;-49
2023/05/08 09:23:55;;;;;;;4.10;2.40;;;;;;;18.11;44.74;102180.24;110439;1269;22183;-50
2023/05/08 09:26:41;;;;;;;4.90;2.60;;;;;;;18.22;44.91;102181.13;110287;1272;23041;-49
2023/05/08 09:29:08;;;;;;;3.90;2.40;;;;;;;18.34;44.57;102181.25;110544;1269;22208;-48
2023/05/08 09:31:39;;;;;;;6.80;2.80;;;;;;;18.45;44.22;102185.51;109602;1272;1002422;-49
2023/05/08 09:34:26;;;;;;;4.10;2.20;;;;;;;18.52;43.69;102184.79;110511;1274;22124;-49
2023/05/08 09:36:54;;;;;;;3.50;2.20;;;;;;;18.51;43.98;102191.98;110543;1274;22123;-49
2023/05/08 09:39:26;;;;;;;3.50;2.20;;;;;;;18.55;44.02;102189.77;110535;1275;22363;-49
2023/05/08 09:41:57;;;;;;;3.90;2.00;;;;;;;18.64;43.51;102188.22;110556;1274;22201;-49
2023/05/08 09:44:24;;;;;;;4.60;2.60;;;;;;;18.73;43.21;102185.48;110570;1274;22156;-49
2023/05/08 09:46:51;;;;;;;3.20;2.20;;;;;;;18.82;43.02;102187.98;110452;1275;22363;-49
2023/05/08 09:49:18;;;;;;;3.60;2.10;;;;;;;18.88;43.03;102187.97;109417;1275;1002190;-49
2023/05/08 09:51:52;;;;;;;4.70;2.40;;;;;;;18.95;42.85;102187.00;110500;1268;22156;-49
2023/05/08 09:54:19;;;;;;;3.80;2.20;;;;;;;19.01;42.68;102181.20;110482;1268;23145;-49
2023/05/08 09:56:46;;;;;;;2.80;2.20;;;;;;;19.08;42.48;102177.77;110540;1268;22277;-49
2023/05/08 09:59:22;;;;;;;4.60;2.30;;;;;;;19.20;42.31;102176.99;110276;1273;22517;-49
2023/05/08 10:01:50;;;;;;;3.30;2.40;;;;;;;19.33;42.13;102176.71;110560;1274;22142;-50
2023/05/08 10:04:17;;;;;;;5.60;2.20;;;;;;;19.42;41.93;102175.53;110445;1275;22338;-50
2023/05/08 10:06:56;;;;;;;5.70;2.00;;;;;;;19.46;41.93;102174.86;110553;1273;22148;-49
2023/05/08 10:09:23;;;;;;;4.30;2.30;;;;;;;19.52;41.86;102176.08;110523;1271;22578;-50
2023/05/08 10:11:52;;;;;;;4.60;1.80;;;;;;;19.62;42.13;102176.05;110538;1274;22263;-50
2023/05/08 10:14:19;;;;;;;3.30;2.10;;;;;;;19.75;41.66;102182.05;110304;1274;22369;-49
2023/05/08 10:16:48;;;;;;;3.00;1.70;;;;;;;19.87;41.15;102187.77;110567;1268;22977;-50
2023/05/08 10:19:15;;;;;;;5.80;2.20;;;;;;;19.94;40.24;102192.07;110535;1275;22310;-49
2023/05/08 10:21:47;;;;;;;2.70;1.90;;;;;;;19.94;39.96;102190.52;110590;1271;22446;-49
2023/05/08 10:24:26;;;;;;;3.60;2.80;;;;;;;19.91;39.76;102191.68;110505;1268;22193;-49
2023/05/08 10:27:00;;;;;;;3.00;2.10;;;;;;;19.91;39.74;102192.73;110238;1275;22342;-49
2023/05/08 10:29:39;;;;;;;2.60;1.90;;;;;;;19.95;39.85;102193.11;110580;1273;22379;-50
2023/05/08 10:32:08;;;;;;;3.40;1.80;;;;;;;20.00;39.60;102195.02;110353;1269;22281;-49
2023/05/08 10:34:37;;;;;;;2.90;1.90;;;;;;;20.05;39.28;102195.54;110563;1270;22466;-49
2023/05/08 10:37:04;;;;;;;4.20;2.10;;;;;;;20.02;38.96;102193.20;110524;1268;22886;-50
2023/05/08 10:39:31;;;;;;;5.10;2.10;;;;;;;19.99;38.81;102186.42;110466;1267;22510;-49
2023/05/08 10:41:58;;;;;;;4.30;2.00;;;;;;;19.99;38.65;102186.29;110350;1268;22393;-49
2023/05/08 10:44:26;;;;;;;2.10;1.80;;;;;;;19.99;38.80;102181.50;110452;1270;22203;-49
2023/05/08 10:47:23;;;;;;;2.90;1.80;;;;;;;20.04;38.90;102182.37;110285;1259;22391;-49
2023/05/08 10:50:08;;;;;;;4.40;2.30;;;;;;;20.12;37.89;102186.10;110566;1274;23071;-50
2023/05/08 10:52:51;;;;;;;4.00;1.90;;;;;;;20.15;37.42;102186.00;110636;1268;22393;-50
2023/05/08 10:55:21;;;;;;;4.00;2.80;;;;;;;20.08;37.21;102184.14;110542;1270;22155;-49
2023/05/08 10:58:10;;;;;;;4.50;2.00;;;;;;;19.94;36.90;102178.71;110457;1271;22391;-50
2023/05/08 11:00:52;;;;;;;3.80;2.10;;;;;;;19.78;37.26;102178.27;110559;1274;22168;-49
2023/05/08 11:03:20;;;;;;;4.00;1.90;;;;;;;19.71;37.66;102173.09;110322;1272;22838;-50
2023/05/08 11:05:59;;;;;;;3.90;1.80;;;;;;;19.71;38.02;102175.02;110516;1274;22827;-50
2023/05/08 11:08:27;;;;;;;3.00;2.20;;;;;;;19.72;38.07;102177.28;110578;1269;22377;-50
2023/05/08 11:11:00;;;;;;;2.00;1.80;;;;;;;19.74;37.80;102179.10;110576;1271;22115;-50
2023/05/08 11:13:29;;;;;;;2.60;2.00;;;;;;;19.76;37.76;102179.40;109395;1275;1002489;-50
2023/05/08 11:15:56;;;;;;;2.50;1.90;;;;;;;19.80;37.72;102176.95;110495;1271;23088;-50
2023/05/08 11:18:24;;;;;;;3.20;1.90;;;;;;;19.89;37.84;102175.73;110591;1270;22396;-50
2023/05/08 11:21:00;;;;;;;2.90;1.80;;;;;;;19.99;37.63;102167.41;110083;1275;22192;-50
2023/05/08 11:23:33;;;;;;;10.20;2.10;;;;;;;20.07;37.55;102167.11;110461;1275;22366;-50
2023/05/08 11:26:11;;;;;;;3.10;2.30;;;;;;;20.02;36.94;102165.36;110428;1275;22287;-50
2023/05/08 11:28:40;;;;;;;2.60;1.80;;;;;;;19.95;36.99;102165.26;110280;1275;22170;-50